sensor_id;sensor_type;location;lat;lon;timestamp;pressure;altitude;pressure_sealevel;temperature;humidity
39051;BME280;24805;55.852;37.644;2022-11-15T00:02:35;100000.47;;;2.37;39.45
39051;BME280;24805;55.852;37.644;2022-11-15T00:07:56;100009.16;;;2.37;39.65
39051;BME280;24805;55.852;37.644;2022-11-15T00:13:17;99999.38;;;2.28;39.54
39051;BME280;24805;55.852;37.644;2022-11-15T00:18:38;99974.00;;;2.18;39.91
39051;BME280;24805;55.852;37.644;2022-11-15T00:23:59;99984.25;;;2.32;39.78
39051;BME280;24805;55.852;37.644;2022-11-15T00:29:19;99984.50;;;2.29;40.01
39051;BME280;24805;55.852;37.644;2022-11-15T00:34:40;99986.28;;;2.28;39.32
39051;BME280;24805;55.852;37.644;2022-11-15T00:40:01;99956.09;;;2.12;39.52
39051;BME280;24805;55.852;37.644;2022-11-15T00:45:22;99981.59;;;2.21;39.80
39051;BME280;24805;55.852;37.644;2022-11-15T00:50:43;99969.81;;;2.15;39.90
39051;BME280;24805;55.852;37.644;2022-11-15T00:56:04;99956.00;;;2.13;40.16
39051;BME280;24805;55.852;37.644;2022-11-15T01:01:24;99970.59;;;2.04;39.85
39051;BME280;24805;55.852;37.644;2022-11-15T01:06:45;99952.00;;;1.96;39.58
39051;BME280;24805;55.852;37.644;2022-11-15T01:12:06;99955.06;;;1.90;39.99
39051;BME280;24805;55.852;37.644;2022-11-15T01:17:26;99951.09;;;1.85;39.95
39051;BME280;24805;55.852;37.644;2022-11-15T01:22:47;99936.56;;;1.81;39.58
39051;BME280;24805;55.852;37.644;2022-11-15T01:28:07;99929.19;;;1.75;39.66
39051;BME280;24805;55.852;37.644;2022-11-15T01:33:29;99918.41;;;1.79;39.97
39051;BME280;24805;55.852;37.644;2022-11-15T01:38:53;99919.25;;;2.15;39.44
39051;BME280;24805;55.852;37.644;2022-11-15T01:50:17;99926.69;;;1.97;40.83
39051;BME280;24805;55.852;37.644;2022-11-15T01:55:40;99912.34;;;1.79;41.14
39051;BME280;24805;55.852;37.644;2022-11-15T02:01:01;99924.00;;;1.86;41.06
39051;BME280;24805;55.852;37.644;2022-11-15T02:06:22;99916.03;;;1.87;41.06
39051;BME280;24805;55.852;37.644;2022-11-15T02:11:44;99929.22;;;1.86;41.23
39051;BME280;24805;55.852;37.644;2022-11-15T02:28:29;99923.16;;;1.85;41.29
39051;BME280;24805;55.852;37.644;2022-11-15T02:40:07;99917.69;;;1.77;41.63
39051;BME280;24805;55.852;37.644;2022-11-15T02:45:35;99897.63;;;1.65;41.86
39051;BME280;24805;55.852;37.644;2022-11-15T02:50:58;99899.50;;;1.63;41.79
39051;BME280;24805;55.852;37.644;2022-11-15T02:56:19;99908.66;;;1.57;42.17
39051;BME280;24805;55.852;37.644;2022-11-15T03:07:16;99899.47;;;1.52;42.00
39051;BME280;24805;55.852;37.644;2022-11-15T03:18:41;99880.38;;;1.62;42.09
39051;BME280;24805;55.852;37.644;2022-11-15T03:24:05;99881.69;;;1.57;42.04
39051;BME280;24805;55.852;37.644;2022-11-15T03:29:31;99883.09;;;1.61;42.36
39051;BME280;24805;55.852;37.644;2022-11-15T03:35:08;99885.28;;;1.67;42.27
39051;BME280;24805;55.852;37.644;2022-11-15T03:40:44;99879.94;;;1.68;42.22
39051;BME280;24805;55.852;37.644;2022-11-15T03:46:19;99886.94;;;1.68;42.67
39051;BME280;24805;55.852;37.644;2022-11-15T03:51:43;99875.50;;;1.58;42.77
39051;BME280;24805;55.852;37.644;2022-11-15T03:57:04;99873.00;;;1.56;42.54
39051;BME280;24805;55.852;37.644;2022-11-15T04:02:24;99868.59;;;1.57;43.00
39051;BME280;24805;55.852;37.644;2022-11-15T04:07:45;99856.47;;;1.56;43.00
39051;BME280;24805;55.852;37.644;2022-11-15T04:13:25;99860.88;;;1.55;42.94
39051;BME280;24805;55.852;37.644;2022-11-15T04:19:04;99860.25;;;1.52;42.50
39051;BME280;24805;55.852;37.644;2022-11-15T04:24:43;99855.03;;;1.52;43.10
39051;BME280;24805;55.852;37.644;2022-11-15T04:30:04;99862.03;;;1.51;43.21
39051;BME280;24805;55.852;37.644;2022-11-15T04:35:44;99853.47;;;1.49;42.94
39051;BME280;24805;55.852;37.644;2022-11-15T04:41:43;99858.69;;;1.49;43.01
39051;BME280;24805;55.852;37.644;2022-11-15T04:47:22;99827.50;;;1.35;42.67
39051;BME280;24805;55.852;37.644;2022-11-15T04:52:53;99838.59;;;1.50;42.31
39051;BME280;24805;55.852;37.644;2022-11-15T04:58:14;99830.25;;;1.45;42.94
39051;BME280;24805;55.852;37.644;2022-11-15T05:03:35;99838.22;;;1.43;42.69
39051;BME280;24805;55.852;37.644;2022-11-15T05:09:15;99835.47;;;1.45;42.74
39051;BME280;24805;55.852;37.644;2022-11-15T05:14:36;99829.19;;;1.47;42.77
39051;BME280;24805;55.852;37.644;2022-11-15T05:19:56;99832.66;;;1.48;42.59
39051;BME280;24805;55.852;37.644;2022-11-15T05:25:16;99835.88;;;1.51;42.54
39051;BME280;24805;55.852;37.644;2022-11-15T05:30:37;99819.25;;;1.52;43.00
39051;BME280;24805;55.852;37.644;2022-11-15T05:46:57;99817.66;;;1.73;42.39
39051;BME280;24805;55.852;37.644;2022-11-15T05:52:23;99812.44;;;1.85;42.34
39051;BME280;24805;55.852;37.644;2022-11-15T05:57:45;99807.81;;;1.88;42.25
39051;BME280;24805;55.852;37.644;2022-11-15T06:03:06;99803.91;;;1.94;41.92
39051;BME280;24805;55.852;37.644;2022-11-15T06:08:27;99806.78;;;2.02;41.58
39051;BME280;24805;55.852;37.644;2022-11-15T06:13:47;99790.97;;;2.03;41.40
39051;BME280;24805;55.852;37.644;2022-11-15T06:19:08;99795.25;;;2.04;41.43
39051;BME280;24805;55.852;37.644;2022-11-15T06:24:28;99785.88;;;2.13;41.69
39051;BME280;24805;55.852;37.644;2022-11-15T06:29:49;99768.13;;;2.05;41.41
39051;BME280;24805;55.852;37.644;2022-11-15T06:35:09;99773.28;;;2.18;40.94
39051;BME280;24805;55.852;37.644;2022-11-15T06:40:29;99778.25;;;2.21;41.19
39051;BME280;24805;55.852;37.644;2022-11-15T06:45:50;99776.56;;;2.20;41.28
39051;BME280;24805;55.852;37.644;2022-11-15T06:51:10;99778.50;;;2.18;41.03
39051;BME280;24805;55.852;37.644;2022-11-15T06:56:31;99772.78;;;2.24;40.85
39051;BME280;24805;55.852;37.644;2022-11-15T07:01:51;99763.38;;;2.22;40.58
39051;BME280;24805;55.852;37.644;2022-11-15T07:07:12;99755.53;;;2.33;40.93
39051;BME280;24805;55.852;37.644;2022-11-15T07:12:33;99752.19;;;2.42;41.10
39051;BME280;24805;55.852;37.644;2022-11-15T07:17:53;99744.31;;;2.53;40.69
39051;BME280;24805;55.852;37.644;2022-11-15T07:23:14;99740.41;;;2.59;40.58
39051;BME280;24805;55.852;37.644;2022-11-15T07:28:35;99718.41;;;2.39;40.39
39051;BME280;24805;55.852;37.644;2022-11-15T07:33:56;99726.50;;;2.36;40.54
39051;BME280;24805;55.852;37.644;2022-11-15T07:39:16;99722.66;;;2.40;40.69
39051;BME280;24805;55.852;37.644;2022-11-15T07:44:37;99720.28;;;2.48;40.63
39051;BME280;24805;55.852;37.644;2022-11-15T07:49:57;99720.16;;;2.50;40.60
39051;BME280;24805;55.852;37.644;2022-11-15T07:55:18;99721.47;;;2.55;41.26
39051;BME280;24805;55.852;37.644;2022-11-15T08:00:38;99707.19;;;2.59;40.63
39051;BME280;24805;55.852;37.644;2022-11-15T08:05:59;99717.63;;;2.70;40.67
39051;BME280;24805;55.852;37.644;2022-11-15T08:11:19;99713.16;;;2.82;40.66
39051;BME280;24805;55.852;37.644;2022-11-15T08:16:40;99703.53;;;2.83;40.11
39051;BME280;24805;55.852;37.644;2022-11-15T08:22:00;99711.78;;;2.78;40.40
39051;BME280;24805;55.852;37.644;2022-11-15T08:27:21;99695.09;;;2.79;40.32
39051;BME280;24805;55.852;37.644;2022-11-15T08:32:43;99690.88;;;2.88;40.53
39051;BME280;24805;55.852;37.644;2022-11-15T08:38:03;99684.47;;;3.13;40.25
39051;BME280;24805;55.852;37.644;2022-11-15T08:43:23;99674.25;;;3.09;39.93
39051;BME280;24805;55.852;37.644;2022-11-15T08:48:45;99671.72;;;3.19;39.95
39051;BME280;24805;55.852;37.644;2022-11-15T08:54:06;99671.44;;;3.22;39.56
39051;BME280;24805;55.852;37.644;2022-11-15T08:59:26;99666.97;;;3.13;39.75
39051;BME280;24805;55.852;37.644;2022-11-15T09:04:47;99637.53;;;2.89;39.72
39051;BME280;24805;55.852;37.644;2022-11-15T09:10:08;99652.72;;;2.74;40.09
39051;BME280;24805;55.852;37.644;2022-11-15T09:15:29;99654.50;;;2.73;40.65
39051;BME280;24805;55.852;37.644;2022-11-15T09:20:50;99644.84;;;2.74;40.47
39051;BME280;24805;55.852;37.644;2022-11-15T09:26:10;99636.63;;;2.79;40.39
39051;BME280;24805;55.852;37.644;2022-11-15T09:31:30;99636.69;;;2.88;40.34
39051;BME280;24805;55.852;37.644;2022-11-15T09:36:51;99633.81;;;2.91;40.41
39051;BME280;24805;55.852;37.644;2022-11-15T09:47:56;99632.09;;;3.22;40.03
39051;BME280;24805;55.852;37.644;2022-11-15T09:53:47;99639.00;;;3.44;40.06
39051;BME280;24805;55.852;37.644;2022-11-15T10:04:47;99614.91;;;3.29;39.92
39051;BME280;24805;55.852;37.644;2022-11-15T10:15:43;99597.84;;;3.35;39.93
39051;BME280;24805;55.852;37.644;2022-11-15T10:20:50;99576.53;;;3.28;39.60
39051;BME280;24805;55.852;37.644;2022-11-15T10:25:55;99582.03;;;3.25;39.96
39051;BME280;24805;55.852;37.644;2022-11-15T10:31:00;99560.59;;;3.20;39.82
39051;BME280;24805;55.852;37.644;2022-11-15T10:41:11;99566.69;;;3.21;40.49
39051;BME280;24805;55.852;37.644;2022-11-15T10:46:22;99559.91;;;3.39;40.06
39051;BME280;24805;55.852;37.644;2022-11-15T10:51:46;99548.66;;;3.27;40.35
39051;BME280;24805;55.852;37.644;2022-11-15T10:56:51;99543.28;;;3.29;40.30
39051;BME280;24805;55.852;37.644;2022-11-15T11:01:55;99536.72;;;3.14;40.85
39051;BME280;24805;55.852;37.644;2022-11-15T11:06:58;99528.84;;;3.14;40.78
39051;BME280;24805;55.852;37.644;2022-11-15T11:12:02;99525.66;;;3.10;40.95
39051;BME280;24805;55.852;37.644;2022-11-15T11:22:25;99518.19;;;3.05;41.69
39051;BME280;24805;55.852;37.644;2022-11-15T11:38:19;99492.25;;;2.61;42.55
39051;BME280;24805;55.852;37.644;2022-11-15T11:43:30;99489.91;;;2.58;43.28
39051;BME280;24805;55.852;37.644;2022-11-15T11:48:42;99492.97;;;2.63;42.72
39051;BME280;24805;55.852;37.644;2022-11-15T11:53:57;99492.06;;;2.53;44.17
39051;BME280;24805;55.852;37.644;2022-11-15T11:59:07;99482.16;;;2.35;45.25
39051;BME280;24805;55.852;37.644;2022-11-15T12:04:21;99484.38;;;2.19;44.87
39051;BME280;24805;55.852;37.644;2022-11-15T12:19:36;99470.56;;;1.96;48.32
39051;BME280;24805;55.852;37.644;2022-11-15T12:25:02;99467.88;;;2.07;48.82
39051;BME280;24805;55.852;37.644;2022-11-15T12:30:19;99467.50;;;2.12;48.92
39051;BME280;24805;55.852;37.644;2022-11-15T12:40:29;99456.91;;;1.82;52.47
39051;BME280;24805;55.852;37.644;2022-11-15T12:45:37;99447.31;;;1.71;54.03
39051;BME280;24805;55.852;37.644;2022-11-15T12:51:00;99442.31;;;1.68;52.32
39051;BME280;24805;55.852;37.644;2022-11-15T13:01:09;99440.94;;;1.42;54.84
39051;BME280;24805;55.852;37.644;2022-11-15T13:06:36;99434.53;;;1.46;54.18
39051;BME280;24805;55.852;37.644;2022-11-15T13:11:48;99414.50;;;1.35;55.29
39051;BME280;24805;55.852;37.644;2022-11-15T13:16:57;99411.41;;;1.30;55.61
39051;BME280;24805;55.852;37.644;2022-11-15T13:22:04;99405.69;;;1.25;56.39
39051;BME280;24805;55.852;37.644;2022-11-15T13:27:25;99403.13;;;1.14;58.28
39051;BME280;24805;55.852;37.644;2022-11-15T13:32:27;99398.47;;;1.06;59.57
39051;BME280;24805;55.852;37.644;2022-11-15T13:37:30;99380.81;;;0.87;59.06
39051;BME280;24805;55.852;37.644;2022-11-15T13:42:33;99383.53;;;0.86;59.47
39051;BME280;24805;55.852;37.644;2022-11-15T13:47:35;99384.72;;;0.82;60.44
39051;BME280;24805;55.852;37.644;2022-11-15T13:52:38;99382.22;;;0.91;60.99
39051;BME280;24805;55.852;37.644;2022-11-15T13:57:59;99375.44;;;1.00;59.07
39051;BME280;24805;55.852;37.644;2022-11-15T14:03:27;99375.31;;;1.01;60.86
39051;BME280;24805;55.852;37.644;2022-11-15T14:08:30;99365.72;;;0.91;61.72
39051;BME280;24805;55.852;37.644;2022-11-15T14:13:33;99374.41;;;0.91;61.44
39051;BME280;24805;55.852;37.644;2022-11-15T14:18:47;99368.00;;;0.95;61.27
39051;BME280;24805;55.852;37.644;2022-11-15T14:23:50;99357.53;;;0.84;59.83
39051;BME280;24805;55.852;37.644;2022-11-15T14:28:53;99368.13;;;0.72;60.73
39051;BME280;24805;55.852;37.644;2022-11-15T14:33:55;99348.16;;;0.71;60.75
39051;BME280;24805;55.852;37.644;2022-11-15T14:38:57;99348.16;;;0.71;61.30
39051;BME280;24805;55.852;37.644;2022-11-15T14:44:00;99344.59;;;0.60;60.92
39051;BME280;24805;55.852;37.644;2022-11-15T14:49:02;99327.53;;;0.45;61.88
39051;BME280;24805;55.852;37.644;2022-11-15T14:54:04;99331.81;;;0.35;62.29
39051;BME280;24805;55.852;37.644;2022-11-15T14:59:06;99330.84;;;0.36;62.03
39051;BME280;24805;55.852;37.644;2022-11-15T15:04:10;99326.22;;;0.40;62.43
39051;BME280;24805;55.852;37.644;2022-11-15T15:09:13;99315.44;;;0.33;62.46
39051;BME280;24805;55.852;37.644;2022-11-15T15:14:15;99324.44;;;0.29;61.58
39051;BME280;24805;55.852;37.644;2022-11-15T15:19:17;99323.22;;;0.22;62.17
39051;BME280;24805;55.852;37.644;2022-11-15T15:24:19;99306.75;;;0.10;62.23
39051;BME280;24805;55.852;37.644;2022-11-15T15:29:21;99312.91;;;0.09;62.08
39051;BME280;24805;55.852;37.644;2022-11-15T15:34:23;99301.03;;;0.05;62.95
39051;BME280;24805;55.852;37.644;2022-11-15T15:39:25;99285.16;;;0.08;63.34
39051;BME280;24805;55.852;37.644;2022-11-15T15:44:28;99287.66;;;0.10;63.91
39051;BME280;24805;55.852;37.644;2022-11-15T15:49:30;99283.38;;;0.09;62.58
39051;BME280;24805;55.852;37.644;2022-11-15T15:54:32;99268.44;;;-0.01;63.65
39051;BME280;24805;55.852;37.644;2022-11-15T15:59:34;99267.84;;;-0.04;63.92
39051;BME280;24805;55.852;37.644;2022-11-15T16:04:36;99246.22;;;-0.17;63.78
39051;BME280;24805;55.852;37.644;2022-11-15T16:09:39;99267.00;;;-0.05;63.69
39051;BME280;24805;55.852;37.644;2022-11-15T16:15:00;99260.25;;;0.04;63.72
39051;BME280;24805;55.852;37.644;2022-11-15T16:20:04;99257.03;;;0.00;63.66
39051;BME280;24805;55.852;37.644;2022-11-15T16:25:07;99248.53;;;-0.02;63.50
39051;BME280;24805;55.852;37.644;2022-11-15T16:30:13;99248.88;;;0.05;64.06
39051;BME280;24805;55.852;37.644;2022-11-15T16:35:17;99236.44;;;-0.03;64.25
39051;BME280;24805;55.852;37.644;2022-11-15T16:40:25;99232.16;;;0.08;63.71
39051;BME280;24805;55.852;37.644;2022-11-15T16:45:28;99237.03;;;0.12;65.64
39051;BME280;24805;55.852;37.644;2022-11-15T16:50:33;99232.19;;;0.19;64.04
39051;BME280;24805;55.852;37.644;2022-11-15T16:55:41;99228.75;;;0.18;64.43
39051;BME280;24805;55.852;37.644;2022-11-15T17:00:44;99224.09;;;0.11;64.12
39051;BME280;24805;55.852;37.644;2022-11-15T17:05:47;99226.00;;;0.20;63.66
39051;BME280;24805;55.852;37.644;2022-11-15T17:10:49;99218.66;;;0.14;63.99
39051;BME280;24805;55.852;37.644;2022-11-15T17:16:02;99210.91;;;0.23;63.63
39051;BME280;24805;55.852;37.644;2022-11-15T17:21:12;99207.47;;;0.23;64.60
39051;BME280;24805;55.852;37.644;2022-11-15T17:26:15;99218.03;;;0.21;65.38
39051;BME280;24805;55.852;37.644;2022-11-15T17:31:38;99207.25;;;0.26;64.76
39051;BME280;24805;55.852;37.644;2022-11-15T17:36:40;99216.13;;;0.23;64.98
39051;BME280;24805;55.852;37.644;2022-11-15T17:41:42;99206.78;;;0.21;64.25
39051;BME280;24805;55.852;37.644;2022-11-15T17:46:44;99203.13;;;0.12;64.36
39051;BME280;24805;55.852;37.644;2022-11-15T17:51:46;99188.75;;;0.07;65.40
39051;BME280;24805;55.852;37.644;2022-11-15T17:56:51;99200.38;;;0.14;64.85
39051;BME280;24805;55.852;37.644;2022-11-15T18:01:54;99191.63;;;0.15;64.00
39051;BME280;24805;55.852;37.644;2022-11-15T18:06:56;99189.13;;;0.02;65.07
39051;BME280;24805;55.852;37.644;2022-11-15T18:11:58;99198.03;;;-0.01;65.13
39051;BME280;24805;55.852;37.644;2022-11-15T18:17:00;99188.06;;;0.05;65.39
39051;BME280;24805;55.852;37.644;2022-11-15T18:22:02;99186.63;;;0.12;65.62
39051;BME280;24805;55.852;37.644;2022-11-15T18:27:05;99180.47;;;0.13;65.74
39051;BME280;24805;55.852;37.644;2022-11-15T18:32:08;99172.88;;;0.10;65.06
39051;BME280;24805;55.852;37.644;2022-11-15T18:37:13;99175.72;;;0.07;64.29
39051;BME280;24805;55.852;37.644;2022-11-15T18:42:15;99178.00;;;0.00;65.76
39051;BME280;24805;55.852;37.644;2022-11-15T18:47:17;99171.44;;;0.06;65.87
39051;BME280;24805;55.852;37.644;2022-11-15T18:52:19;99163.50;;;0.07;65.61
39051;BME280;24805;55.852;37.644;2022-11-15T18:57:22;99164.34;;;0.08;66.14
39051;BME280;24805;55.852;37.644;2022-11-15T19:02:24;99169.56;;;0.08;65.02
39051;BME280;24805;55.852;37.644;2022-11-15T19:07:26;99158.41;;;0.06;65.72
39051;BME280;24805;55.852;37.644;2022-11-15T19:12:28;99154.38;;;0.02;65.43
39051;BME280;24805;55.852;37.644;2022-11-15T19:17:30;99156.53;;;-0.04;65.46
39051;BME280;24805;55.852;37.644;2022-11-15T19:22:32;99153.34;;;-0.07;66.09
39051;BME280;24805;55.852;37.644;2022-11-15T19:27:35;99159.16;;;-0.04;65.24
39051;BME280;24805;55.852;37.644;2022-11-15T19:32:39;99157.84;;;-0.09;65.64
39051;BME280;24805;55.852;37.644;2022-11-15T19:37:41;99134.84;;;-0.26;65.36
39051;BME280;24805;55.852;37.644;2022-11-15T19:42:43;99146.09;;;-0.15;64.64
39051;BME280;24805;55.852;37.644;2022-11-15T19:47:45;99145.75;;;-0.21;65.06
39051;BME280;24805;55.852;37.644;2022-11-15T19:52:47;99139.22;;;-0.27;65.18
39051;BME280;24805;55.852;37.644;2022-11-15T19:57:49;99136.50;;;-0.25;65.57
39051;BME280;24805;55.852;37.644;2022-11-15T20:02:52;99133.91;;;-0.25;65.37
39051;BME280;24805;55.852;37.644;2022-11-15T20:07:54;99122.75;;;-0.27;65.36
39051;BME280;24805;55.852;37.644;2022-11-15T20:12:56;99127.50;;;-0.32;65.08
39051;BME280;24805;55.852;37.644;2022-11-15T20:17:58;99122.41;;;-0.34;65.11
39051;BME280;24805;55.852;37.644;2022-11-15T20:23:00;99119.19;;;-0.38;65.14
39051;BME280;24805;55.852;37.644;2022-11-15T20:28:05;99127.13;;;-0.39;65.22
39051;BME280;24805;55.852;37.644;2022-11-15T20:33:07;99129.38;;;-0.35;65.41
39051;BME280;24805;55.852;37.644;2022-11-15T20:38:10;99129.16;;;-0.31;65.32
39051;BME280;24805;55.852;37.644;2022-11-15T20:43:14;99118.25;;;-0.25;65.18
39051;BME280;24805;55.852;37.644;2022-11-15T20:48:17;99126.91;;;-0.36;64.96
39051;BME280;24805;55.852;37.644;2022-11-15T20:53:19;99130.34;;;-0.36;64.62
39051;BME280;24805;55.852;37.644;2022-11-15T20:58:21;99136.25;;;-0.33;65.52
39051;BME280;24805;55.852;37.644;2022-11-15T21:03:24;99123.72;;;-0.28;65.09
39051;BME280;24805;55.852;37.644;2022-11-15T21:08:26;99117.06;;;-0.32;65.68
39051;BME280;24805;55.852;37.644;2022-11-15T21:13:28;99127.38;;;-0.20;66.29
39051;BME280;24805;55.852;37.644;2022-11-15T21:18:31;99130.44;;;-0.15;66.05
39051;BME280;24805;55.852;37.644;2022-11-15T21:23:33;99121.31;;;-0.09;66.29
39051;BME280;24805;55.852;37.644;2022-11-15T21:28:35;99125.38;;;-0.05;65.87
39051;BME280;24805;55.852;37.644;2022-11-15T21:33:38;99118.97;;;-0.01;65.36
39051;BME280;24805;55.852;37.644;2022-11-15T21:38:40;99117.78;;;-0.08;65.64
39051;BME280;24805;55.852;37.644;2022-11-15T21:43:42;99122.88;;;-0.07;66.02
39051;BME280;24805;55.852;37.644;2022-11-15T21:48:44;99109.72;;;-0.05;65.01
39051;BME280;24805;55.852;37.644;2022-11-15T21:53:47;99119.31;;;-0.06;65.18
39051;BME280;24805;55.852;37.644;2022-11-15T21:58:49;99117.53;;;-0.05;65.27
39051;BME280;24805;55.852;37.644;2022-11-15T22:03:51;99123.47;;;-0.03;65.56
39051;BME280;24805;55.852;37.644;2022-11-15T22:08:53;99112.09;;;-0.02;65.56
39051;BME280;24805;55.852;37.644;2022-11-15T22:13:55;99122.16;;;-0.09;64.65
39051;BME280;24805;55.852;37.644;2022-11-15T22:18:58;99109.72;;;-0.16;64.76
39051;BME280;24805;55.852;37.644;2022-11-15T22:24:00;99110.53;;;-0.16;64.24
39051;BME280;24805;55.852;37.644;2022-11-15T22:29:02;99098.34;;;-0.26;64.67
39051;BME280;24805;55.852;37.644;2022-11-15T22:34:05;99107.81;;;-0.14;64.62
39051;BME280;24805;55.852;37.644;2022-11-15T22:39:07;99089.94;;;-0.30;65.17
39051;BME280;24805;55.852;37.644;2022-11-15T22:44:09;99101.66;;;-0.24;64.31
39051;BME280;24805;55.852;37.644;2022-11-15T22:49:11;99112.56;;;-0.30;64.79
39051;BME280;24805;55.852;37.644;2022-11-15T22:54:14;99111.75;;;-0.31;64.27
39051;BME280;24805;55.852;37.644;2022-11-15T22:59:16;99102.97;;;-0.30;65.35
39051;BME280;24805;55.852;37.644;2022-11-15T23:04:18;99106.19;;;-0.26;64.78
39051;BME280;24805;55.852;37.644;2022-11-15T23:09:21;99098.47;;;-0.28;65.27
39051;BME280;24805;55.852;37.644;2022-11-15T23:14:23;99092.44;;;-0.28;65.08
39051;BME280;24805;55.852;37.644;2022-11-15T23:19:26;99101.16;;;-0.18;65.27
39051;BME280;24805;55.852;37.644;2022-11-15T23:24:29;99090.41;;;-0.25;65.10
39051;BME280;24805;55.852;37.644;2022-11-15T23:29:32;99112.19;;;-0.15;65.08
39051;BME280;24805;55.852;37.644;2022-11-15T23:34:55;99101.16;;;-0.18;65.05
39051;BME280;24805;55.852;37.644;2022-11-15T23:39:57;99108.31;;;-0.20;64.58
39051;BME280;24805;55.852;37.644;2022-11-15T23:44:59;99092.06;;;-0.24;64.90
39051;BME280;24805;55.852;37.644;2022-11-15T23:50:03;99103.44;;;-0.14;64.40
39051;BME280;24805;55.852;37.644;2022-11-15T23:55:05;99106.16;;;-0.15;64.99
